Hlavní strana
METAR-TAF:

METAR-TAF

Letiště :

Brønnøysund, Norsko

zeměpisná šířka: 65-28N, zeměpisná délka: 012-13E, výška: 0 m

Aktuální stav počasí

Zpráva byla vytvořena před 28 minutami, v 20:20 UTC
Jihovýchodní vítr 13 kt s nárazy do 24 kt, proměnlivý mezi východním a jihojihovýchodním
Teplota 4°C
Vlhkost vzduchu 70%
Tlak 999 hPa
Viditelnost 10 km a více

METAR: ENBN 122020Z AUTO 13013G24KT 090V160 9999NDV BKN110/// BKN150/// 04/M01 Q0999

Čas: 21:48 (20:48 UTC)

Předpověď počasí

Zpráva byla vytvořena před 6 hodinami a 48 minutami, v 14:00 UTC
Předpověď platná od 12 v 15 UTC do 12 v 20 UTC
Jihovýchodní vítr 12 kt
Viditelnost 10 km a více
Skoro jasno ve výšce 1500 ft
Oblačno až skoro zataženo ve výšce 5000 ft
Dočasný
od 12 v 15 UTC do 12 v 20 UTC
Jihovýchodní vítr 18 kt s nárazy do 28 kt

TAF: ENBN 121400Z 1215/1220 13012KT 9999 FEW015 BKN050 TEMPO 1215/1220 13018G28KT

Stav a předpovědi počasí z více než 4 000 letišť (zprávy METAR a TAF).

Červené a žluté tečky na mapě představují dostupné meteorologické stanice.

Když kurzor umístíte na tečku, zobrazí se název stanice.

Pak kliknutím zobrazíte stav a předpověď počasí.

Chcete-li změnit mapu, kliknutím na zelené tlačítko se znaménkem +mapu přiblížíte, kliknutím na zelené tlačítko se znaménkem – mapu oddálíte a kliknutím na zelené šipky přejdete na sousední mapy.


METAR-TAF: